createdAt,value
2022-12-08T00:00:02.334Z,57.96
2022-12-08T00:02:30.170Z,57.88
2022-12-08T00:05:15.483Z,57.32
2022-12-08T00:08:02.048Z,57.80
2022-12-08T00:13:17.577Z,57.76
2022-12-08T00:15:45.329Z,58.35
2022-12-08T00:18:13.006Z,57.53
2022-12-08T00:20:40.717Z,57.49
2022-12-08T00:23:10.121Z,58.00
2022-12-08T00:28:05.914Z,57.46
2022-12-08T00:30:33.549Z,57.94
2022-12-08T00:33:01.297Z,57.62
2022-12-08T00:35:28.936Z,58.17
2022-12-08T00:38:00.865Z,57.71
2022-12-08T00:40:30.447Z,57.67
2022-12-08T00:42:58.099Z,58.11
2022-12-08T00:45:25.907Z,57.92
2022-12-08T00:47:53.685Z,57.67
2022-12-08T00:50:21.547Z,57.17
2022-12-08T00:52:49.214Z,58.11
2022-12-08T00:55:17.085Z,57.98
2022-12-08T00:57:46.114Z,58.04
2022-12-08T01:00:14.554Z,57.68
2022-12-08T01:02:42.323Z,57.83
2022-12-08T01:05:10.414Z,57.29
2022-12-08T01:07:38.110Z,57.61
2022-12-08T01:10:07.337Z,57.56
2022-12-08T01:12:35.118Z,57.47
2022-12-08T01:15:04.458Z,57.27
2022-12-08T01:17:32.097Z,57.25
2022-12-08T01:20:00.155Z,57.27
2022-12-08T01:22:27.795Z,57.50
2022-12-08T01:24:55.571Z,58.13
2022-12-08T01:27:23.348Z,57.81
2022-12-08T01:29:51.595Z,58.05
2022-12-08T01:32:20.695Z,57.48
2022-12-08T01:34:48.419Z,57.30
2022-12-08T01:37:16.069Z,58.10
2022-12-08T01:39:44.011Z,57.97
2022-12-08T01:42:20.362Z,57.17
2022-12-08T01:44:54.428Z,57.19
2022-12-08T01:47:24.147Z,57.85
2022-12-08T01:49:52.059Z,57.76
2022-12-08T01:52:22.536Z,57.62
2022-12-08T01:54:51.515Z,57.18
2022-12-08T01:57:21.735Z,57.50
2022-12-08T01:59:51.508Z,57.46
2022-12-08T02:02:19.333Z,57.97
2022-12-08T02:04:48.573Z,57.77
2022-12-08T02:07:16.301Z,56.57
2022-12-08T02:09:53.311Z,56.73
2022-12-08T02:12:20.990Z,56.92
2022-12-08T02:14:48.812Z,57.57
2022-12-08T02:17:23.505Z,57.46
2022-12-08T02:20:07.482Z,57.43
2022-12-08T02:22:38.591Z,57.42
2022-12-08T02:25:09.874Z,57.76
2022-12-08T02:27:42.172Z,57.79
2022-12-08T02:30:17.039Z,57.71
2022-12-08T02:33:08.777Z,58.30
2022-12-08T02:35:38.128Z,58.17
2022-12-08T02:38:08.925Z,57.81
2022-12-08T02:40:37.864Z,57.34
2022-12-08T02:43:08.961Z,58.08
2022-12-08T02:45:38.481Z,58.35
2022-12-08T02:48:08.276Z,57.34
2022-12-08T02:50:36.003Z,57.86
2022-12-08T02:55:38.260Z,58.20
2022-12-08T02:58:19.289Z,58.13
2022-12-08T03:00:52.828Z,57.49
2022-12-08T03:03:23.610Z,57.80
2022-12-08T03:05:58.404Z,58.47
2022-12-08T03:08:29.975Z,58.50
2022-12-08T03:10:59.727Z,58.24
2022-12-08T03:13:29.990Z,57.63
2022-12-08T03:15:58.934Z,58.43
2022-12-08T03:18:29.638Z,57.54
2022-12-08T03:20:57.427Z,57.53
2022-12-08T03:23:25.086Z,57.89
2022-12-08T03:25:56.785Z,57.75
2022-12-08T03:28:24.671Z,57.29
2022-12-08T03:30:53.393Z,57.59
2022-12-08T03:33:23.601Z,57.68
2022-12-08T03:35:51.400Z,57.61
2022-12-08T03:38:19.099Z,58.16
2022-12-08T03:41:07.961Z,57.91
2022-12-08T03:43:37.026Z,57.26
2022-12-08T03:46:04.829Z,57.55
2022-12-08T03:48:32.527Z,57.51
2022-12-08T03:51:00.284Z,58.21
2022-12-08T03:53:28.007Z,57.85
2022-12-08T03:55:55.853Z,57.55
2022-12-08T03:58:23.611Z,57.87
2022-12-08T04:00:53.725Z,58.10
2022-12-08T04:03:21.493Z,57.81
2022-12-08T04:05:49.288Z,57.60
2022-12-08T04:08:17.004Z,58.24
2022-12-08T04:10:44.839Z,58.33
2022-12-08T04:13:12.548Z,57.77
2022-12-08T04:15:40.352Z,57.32
2022-12-08T04:18:09.438Z,57.46
2022-12-08T04:20:39.979Z,57.50
2022-12-08T04:23:07.658Z,57.65
2022-12-08T04:25:35.594Z,57.69
2022-12-08T04:28:03.367Z,57.43
2022-12-08T04:30:31.097Z,58.46
2022-12-08T04:32:58.843Z,57.98
2022-12-08T04:35:27.884Z,58.20
2022-12-08T04:37:55.765Z,57.98
2022-12-08T04:40:23.598Z,57.55
2022-12-08T04:42:51.289Z,58.46
2022-12-08T04:45:19.143Z,57.50
2022-12-08T04:47:46.983Z,57.60
2022-12-08T04:50:14.661Z,58.03
2022-12-08T04:52:43.824Z,57.41
2022-12-08T04:55:11.508Z,58.10
2022-12-08T04:57:39.311Z,57.98
2022-12-08T05:00:08.331Z,57.94
2022-12-08T05:02:36.131Z,58.36
2022-12-08T05:05:03.891Z,57.75
2022-12-08T05:07:31.634Z,58.14
2022-12-08T05:10:00.827Z,58.63
2022-12-08T05:12:28.687Z,57.69
2022-12-08T05:14:56.366Z,57.90
2022-12-08T05:17:24.334Z,58.03
2022-12-08T05:19:52.012Z,57.99
2022-12-08T05:22:19.735Z,57.83
2022-12-08T05:24:48.036Z,58.30
2022-12-08T05:27:17.129Z,57.78
2022-12-08T05:29:44.984Z,58.18
2022-12-08T05:32:12.669Z,58.67
2022-12-08T05:34:40.367Z,57.92
2022-12-08T05:37:08.093Z,57.68
2022-12-08T05:39:35.822Z,58.18
2022-12-08T05:42:03.661Z,58.22
2022-12-08T05:44:32.861Z,57.96
2022-12-08T05:47:00.534Z,58.52
2022-12-08T05:49:29.542Z,58.15
2022-12-08T05:51:57.272Z,58.45
2022-12-08T05:54:33.260Z,58.64
2022-12-08T05:57:00.998Z,58.44
2022-12-08T05:59:28.914Z,58.24
2022-12-08T06:01:58.061Z,58.89
2022-12-08T06:04:25.929Z,58.67
2022-12-08T06:06:53.732Z,58.92
2022-12-08T06:09:21.817Z,59.19
2022-12-08T06:11:49.630Z,59.10
2022-12-08T06:14:17.464Z,58.78
2022-12-08T06:16:45.360Z,59.05
2022-12-08T06:19:14.686Z,58.62
2022-12-08T06:21:42.645Z,59.19
2022-12-08T06:24:10.643Z,58.81
2022-12-08T06:26:40.396Z,59.40
2022-12-08T06:29:17.018Z,58.80
2022-12-08T06:31:54.366Z,58.61
2022-12-08T06:34:51.643Z,59.45
2022-12-08T06:41:20.626Z,59.24
2022-12-08T06:44:37.287Z,59.29
2022-12-08T06:48:17.484Z,59.08
2022-12-08T06:54:09.532Z,59.04
2022-12-08T06:59:41.870Z,59.13
2022-12-08T07:02:41.574Z,58.96
2022-12-08T07:05:27.478Z,58.33
2022-12-08T07:11:22.184Z,58.55
2022-12-08T07:14:06.174Z,59.09
2022-12-08T07:17:59.822Z,58.85
2022-12-08T07:20:37.744Z,58.41
2022-12-08T07:23:11.798Z,58.36
2022-12-08T07:29:45.709Z,58.86
2022-12-08T07:32:27.485Z,58.71
2022-12-08T07:35:18.369Z,58.61
2022-12-08T07:45:04.412Z,58.68
2022-12-08T07:55:49.156Z,58.47
2022-12-08T07:59:06.542Z,58.56
2022-12-08T08:02:42.963Z,58.73
2022-12-08T08:05:38.869Z,58.94
2022-12-08T08:08:39.057Z,58.71
2022-12-08T08:11:20.959Z,58.42
2022-12-08T08:13:51.294Z,58.45
2022-12-08T08:20:32.660Z,58.56
2022-12-08T08:23:50.392Z,58.03
2022-12-08T08:29:51.091Z,58.18
2022-12-08T08:32:46.450Z,58.54
2022-12-08T08:35:18.986Z,58.07
2022-12-08T08:42:27.933Z,57.97
2022-12-08T08:44:55.896Z,58.22
2022-12-08T08:47:59.894Z,57.87
2022-12-08T08:50:40.005Z,57.68
2022-12-08T08:53:55.130Z,58.21
2022-12-08T08:56:47.592Z,58.19
2022-12-08T09:06:24.328Z,58.54
2022-12-08T09:08:52.703Z,57.93
2022-12-08T09:11:50.599Z,58.61
2022-12-08T09:25:06.803Z,58.00
2022-12-08T09:27:34.952Z,57.31
2022-12-08T09:30:58.392Z,57.73
2022-12-08T09:33:53.006Z,57.62
2022-12-08T09:36:25.092Z,57.74
2022-12-08T09:39:19.111Z,57.41
2022-12-08T09:42:01.761Z,57.55
2022-12-08T09:45:29.442Z,57.55
2022-12-08T09:51:43.244Z,58.11
2022-12-08T09:54:32.991Z,57.32
2022-12-08T09:57:31.945Z,57.49
2022-12-08T10:03:59.860Z,57.16
2022-12-08T10:07:01.426Z,57.85
2022-12-08T10:10:16.703Z,58.25
2022-12-08T10:12:39.229Z,57.91
2022-12-08T10:16:19.125Z,57.10
2022-12-08T10:18:52.282Z,57.54
2022-12-08T10:21:25.885Z,57.92
2022-12-08T10:24:00.728Z,58.04
2022-12-08T10:27:15.583Z,58.03
2022-12-08T10:29:46.619Z,58.23
2022-12-08T10:32:20.015Z,57.66
2022-12-08T10:35:26.264Z,57.96
2022-12-08T10:38:06.526Z,57.47
2022-12-08T10:41:45.276Z,57.98
2022-12-08T10:47:32.422Z,57.78
2022-12-08T10:50:21.055Z,57.44
2022-12-08T10:52:56.144Z,57.83
2022-12-08T10:55:24.846Z,57.59
2022-12-08T10:58:27.145Z,57.44
2022-12-08T11:01:11.320Z,57.92
2022-12-08T11:03:41.044Z,57.60
2022-12-08T11:06:15.226Z,57.53
2022-12-08T11:08:56.349Z,57.88
2022-12-08T11:11:38.493Z,57.59
2022-12-08T11:14:07.942Z,57.53
2022-12-08T11:16:38.307Z,57.88
2022-12-08T11:19:07.653Z,56.69
2022-12-08T11:21:37.983Z,57.84
2022-12-08T11:24:23.408Z,57.17
2022-12-08T11:26:53.581Z,57.41
2022-12-08T11:29:21.900Z,57.12
2022-12-08T11:31:53.205Z,56.82
2022-12-08T11:34:22.841Z,56.41
2022-12-08T11:36:52.949Z,56.20
2022-12-08T11:41:16.170Z,56.20
2022-12-08T11:43:18.118Z,56.21
2022-12-08T11:46:46.401Z,55.89
2022-12-08T11:49:15.941Z,56.12
2022-12-08T11:51:45.814Z,56.73
2022-12-08T11:54:20.334Z,56.10
2022-12-08T11:56:49.239Z,56.11
2022-12-08T11:59:26.345Z,56.02
2022-12-08T12:01:57.439Z,56.12
2022-12-08T12:04:29.429Z,56.38
2022-12-08T12:07:39.215Z,55.41
2022-12-08T12:10:22.526Z,55.86
2022-12-08T12:13:20.813Z,56.23
2022-12-08T12:16:14.038Z,56.02
2022-12-08T12:22:23.232Z,56.19
2022-12-08T12:24:53.986Z,56.26
2022-12-08T12:27:29.143Z,55.92
2022-12-08T12:30:01.994Z,55.63
2022-12-08T12:32:55.111Z,55.79
2022-12-08T12:35:44.668Z,56.77
2022-12-08T12:40:48.679Z,55.91
2022-12-08T12:43:28.943Z,56.63
2022-12-08T12:46:29.877Z,56.08
2022-12-08T12:48:58.204Z,55.85
2022-12-08T12:51:46.892Z,56.21
2022-12-08T12:54:22.190Z,55.47
2022-12-08T12:56:52.996Z,55.75
2022-12-08T12:59:36.526Z,55.98
2022-12-08T13:02:04.231Z,55.79
2022-12-08T13:04:33.761Z,55.33
2022-12-08T13:07:01.670Z,55.40
2022-12-08T13:09:32.789Z,55.29
2022-12-08T13:12:03.239Z,56.40
2022-12-08T13:14:33.082Z,55.92
2022-12-08T13:17:01.513Z,56.14
2022-12-08T13:19:48.814Z,55.67
2022-12-08T13:22:47.657Z,55.97
2022-12-08T13:25:57.040Z,55.97
2022-12-08T13:28:28.136Z,55.59
2022-12-08T13:30:57.649Z,55.04
2022-12-08T13:33:27.498Z,55.37
2022-12-08T13:36:01.695Z,55.89
2022-12-08T13:38:30.728Z,55.45
2022-12-08T13:40:58.544Z,55.53
2022-12-08T13:43:45.190Z,55.39
2022-12-08T13:57:33.759Z,55.31
2022-12-08T14:00:03.839Z,56.43
2022-12-08T14:02:35.805Z,55.66
2022-12-08T14:05:21.741Z,55.23
2022-12-08T14:07:53.664Z,55.54
2022-12-08T14:10:22.153Z,55.68
2022-12-08T14:12:53.550Z,55.44
2022-12-08T14:15:22.603Z,55.71
2022-12-08T14:21:34.430Z,55.73
2022-12-08T14:24:04.075Z,56.40
2022-12-08T14:26:33.860Z,55.93
2022-12-08T14:29:01.836Z,56.38
2022-12-08T14:31:30.954Z,55.53
2022-12-08T14:33:58.770Z,55.36
2022-12-08T14:36:26.823Z,55.94
2022-12-08T14:38:54.918Z,56.62
2022-12-08T14:41:26.486Z,55.33
2022-12-08T14:43:59.566Z,55.81
2022-12-08T14:46:27.468Z,55.87
2022-12-08T14:48:58.097Z,55.22
2022-12-08T14:51:29.634Z,55.63
2022-12-08T14:53:58.510Z,55.24
2022-12-08T14:56:28.079Z,55.41
2022-12-08T14:59:35.717Z,55.09
2022-12-08T15:02:14.976Z,56.40
2022-12-08T15:04:45.149Z,56.26
2022-12-08T15:07:14.230Z,56.15
2022-12-08T15:09:43.038Z,56.53
2022-12-08T15:12:26.368Z,55.98
2022-12-08T15:14:56.633Z,57.15
2022-12-08T15:17:32.862Z,57.10
2022-12-08T15:20:02.032Z,56.63
2022-12-08T15:22:30.541Z,56.31
2022-12-08T15:24:58.312Z,55.52
2022-12-08T15:27:26.390Z,55.74
2022-12-08T15:29:55.347Z,56.73
2022-12-08T15:32:24.021Z,56.28
2022-12-08T15:34:51.671Z,55.37
2022-12-08T15:37:22.753Z,55.17
2022-12-08T15:39:50.572Z,55.23
2022-12-08T15:42:18.462Z,55.26
2022-12-08T15:44:46.113Z,55.31
2022-12-08T15:47:16.620Z,54.49
2022-12-08T15:49:44.314Z,54.80
2022-12-08T15:52:14.067Z,55.39
2022-12-08T15:54:43.087Z,55.24
2022-12-08T15:57:30.053Z,54.79
2022-12-08T16:00:30.301Z,55.04
2022-12-08T16:03:34.319Z,55.44
2022-12-08T16:06:10.173Z,55.42
2022-12-08T16:08:49.497Z,55.67
2022-12-08T16:12:05.395Z,55.73
2022-12-08T16:17:19.601Z,55.42
2022-12-08T16:19:47.591Z,55.38
2022-12-08T16:22:51.624Z,55.33
2022-12-08T16:25:17.617Z,55.58
2022-12-08T16:30:35.650Z,54.77
2022-12-08T16:33:03.464Z,55.40
2022-12-08T16:35:31.501Z,54.89
2022-12-08T16:37:59.207Z,54.92
2022-12-08T16:40:26.932Z,55.05
2022-12-08T16:42:55.077Z,54.91
2022-12-08T16:45:23.759Z,55.32
2022-12-08T16:47:52.510Z,55.31
2022-12-08T16:50:21.112Z,55.11
2022-12-08T16:52:48.973Z,54.93
2022-12-08T16:55:17.486Z,54.92
2022-12-08T16:57:45.457Z,55.12
2022-12-08T17:00:17.090Z,54.58
2022-12-08T17:02:45.160Z,55.20
2022-12-08T17:05:13.783Z,54.71
2022-12-08T17:07:42.009Z,54.83
2022-12-08T17:10:11.088Z,55.63
2022-12-08T17:12:38.956Z,54.64
2022-12-08T17:15:08.552Z,54.51
2022-12-08T17:17:38.343Z,54.66
2022-12-08T17:20:07.932Z,54.58
2022-12-08T17:22:36.142Z,54.69
2022-12-08T17:25:04.010Z,54.47
2022-12-08T17:27:31.668Z,54.39
2022-12-08T17:29:59.545Z,54.75
2022-12-08T17:32:27.322Z,54.80
2022-12-08T17:35:03.792Z,55.12
2022-12-08T17:37:31.773Z,54.35
2022-12-08T17:39:59.562Z,55.21
2022-12-08T17:42:27.431Z,54.61
2022-12-08T17:44:55.352Z,54.66
2022-12-08T17:47:24.272Z,54.44
2022-12-08T17:49:52.244Z,54.24
2022-12-08T17:52:21.348Z,54.41
2022-12-08T17:54:49.039Z,53.83
2022-12-08T17:57:16.816Z,54.65
2022-12-08T17:59:44.764Z,54.99
2022-12-08T18:02:12.647Z,54.55
2022-12-08T18:04:41.505Z,54.76
2022-12-08T18:07:09.155Z,54.67
2022-12-08T18:09:38.390Z,54.47
2022-12-08T18:12:06.376Z,54.92
2022-12-08T18:14:34.271Z,54.68
2022-12-08T18:17:02.073Z,55.18
2022-12-08T18:19:29.981Z,54.81
2022-12-08T18:21:57.783Z,54.92
2022-12-08T18:24:25.619Z,54.38
2022-12-08T18:26:56.167Z,55.08
2022-12-08T18:29:24.082Z,54.83
2022-12-08T18:31:52.125Z,55.24
2022-12-08T18:34:19.974Z,54.93
2022-12-08T18:36:47.711Z,54.55
2022-12-08T18:39:21.601Z,54.82
2022-12-08T18:41:49.558Z,54.72
2022-12-08T18:44:19.024Z,55.00
2022-12-08T18:46:46.784Z,54.73
2022-12-08T18:49:16.973Z,54.87
2022-12-08T18:51:44.854Z,54.83
2022-12-08T18:54:13.073Z,55.09
2022-12-08T18:56:40.988Z,54.74
2022-12-08T18:59:10.494Z,54.08
2022-12-08T19:01:40.454Z,55.07
2022-12-08T19:06:57.014Z,54.56
2022-12-08T19:09:26.670Z,54.00
2022-12-08T19:11:54.944Z,54.43
2022-12-08T19:14:27.739Z,53.85
2022-12-08T19:16:58.044Z,54.18
2022-12-08T19:19:26.160Z,54.45
2022-12-08T19:21:54.068Z,54.25
2022-12-08T19:24:21.911Z,54.64
2022-12-08T19:26:49.831Z,54.74
2022-12-08T19:29:17.888Z,53.99
2022-12-08T19:31:45.723Z,54.61
2022-12-08T19:34:15.120Z,53.79
2022-12-08T19:36:43.348Z,54.04
2022-12-08T19:39:31.835Z,53.69
2022-12-08T19:42:17.181Z,54.21
2022-12-08T19:47:22.252Z,54.18
2022-12-08T19:49:51.553Z,54.17
2022-12-08T19:52:19.421Z,54.09
2022-12-08T19:54:47.443Z,54.08
2022-12-08T19:57:15.959Z,54.50
2022-12-08T19:59:43.758Z,54.13
2022-12-08T20:02:11.846Z,54.67
2022-12-08T20:04:39.841Z,54.30
2022-12-08T20:07:09.002Z,54.71
2022-12-08T20:09:38.988Z,54.66
2022-12-08T20:12:08.203Z,54.32
2022-12-08T20:14:37.585Z,54.32
2022-12-08T20:17:08.013Z,54.40
2022-12-08T20:19:35.890Z,54.51
2022-12-08T20:22:03.840Z,54.08
2022-12-08T20:24:33.101Z,54.03
2022-12-08T20:27:00.936Z,54.01
2022-12-08T20:29:28.800Z,54.51
2022-12-08T20:31:56.835Z,54.18
2022-12-08T20:34:24.871Z,54.56
2022-12-08T20:36:52.704Z,54.62
2022-12-08T20:39:20.486Z,54.26
2022-12-08T20:41:52.110Z,54.40
2022-12-08T20:44:19.939Z,54.40
2022-12-08T20:46:49.543Z,54.62
2022-12-08T20:49:18.762Z,54.71
2022-12-08T20:51:46.922Z,54.37
2022-12-08T20:54:14.958Z,54.50
2022-12-08T20:56:48.080Z,54.77
2022-12-08T20:59:18.280Z,55.11
2022-12-08T21:01:47.370Z,55.43
2022-12-08T21:04:15.536Z,54.66
2022-12-08T21:06:43.986Z,54.54
2022-12-08T21:09:12.054Z,54.95
2022-12-08T21:11:40.170Z,54.78
2022-12-08T21:14:08.063Z,54.89
2022-12-08T21:16:37.492Z,54.89
2022-12-08T21:19:05.917Z,54.89
2022-12-08T21:21:34.171Z,55.00
2022-12-08T21:24:02.199Z,55.03
2022-12-08T21:26:30.061Z,54.87
2022-12-08T21:28:58.929Z,54.96
2022-12-08T21:31:29.200Z,55.01
2022-12-08T21:33:58.564Z,54.93
2022-12-08T21:36:26.353Z,55.08
2022-12-08T21:38:54.662Z,55.11
2022-12-08T21:41:38.017Z,54.92
2022-12-08T21:44:06.016Z,55.08
2022-12-08T21:46:33.903Z,54.88
2022-12-08T21:49:03.252Z,54.93
2022-12-08T21:51:31.424Z,55.03
2022-12-08T21:53:59.361Z,54.95
2022-12-08T21:56:27.379Z,55.25
2022-12-08T21:58:55.259Z,55.43
2022-12-08T22:01:23.116Z,55.02
2022-12-08T22:03:51.114Z,55.22
2022-12-08T22:06:20.371Z,55.40
2022-12-08T22:08:53.797Z,54.65
2022-12-08T22:11:21.786Z,54.97
2022-12-08T22:13:50.819Z,55.10
2022-12-08T22:16:18.841Z,55.02
2022-12-08T22:18:46.749Z,54.83
2022-12-08T22:21:16.712Z,54.99
2022-12-08T22:23:46.321Z,54.70
2022-12-08T22:26:14.432Z,55.21
2022-12-08T22:28:44.434Z,54.73
2022-12-08T22:31:12.998Z,54.87
2022-12-08T22:33:41.397Z,54.94
2022-12-08T22:36:14.502Z,55.27
2022-12-08T22:38:42.467Z,55.04
2022-12-08T22:41:11.811Z,54.77
2022-12-08T22:43:40.085Z,54.73
2022-12-08T22:46:12.157Z,54.82
2022-12-08T22:48:40.751Z,54.91
2022-12-08T22:51:08.932Z,54.74
2022-12-08T22:53:37.027Z,54.71
2022-12-08T22:56:05.320Z,54.87
2022-12-08T22:58:34.437Z,55.09
2022-12-08T23:01:02.215Z,54.72
2022-12-08T23:03:30.089Z,54.86
2022-12-08T23:05:58.194Z,54.79
2022-12-08T23:08:26.070Z,54.75
2022-12-08T23:10:54.258Z,54.91
2022-12-08T23:13:22.434Z,54.95
2022-12-08T23:15:51.522Z,54.97
2022-12-08T23:18:20.003Z,55.10
2022-12-08T23:20:47.955Z,55.35
2022-12-08T23:23:16.059Z,55.35
2022-12-08T23:25:43.938Z,55.33
2022-12-08T23:28:11.899Z,55.20
2022-12-08T23:30:40.430Z,55.22
2022-12-08T23:33:09.491Z,55.26
2022-12-08T23:35:38.523Z,55.35
2022-12-08T23:38:06.220Z,55.42
2022-12-08T23:40:34.270Z,55.27
2022-12-08T23:43:02.037Z,55.35
2022-12-08T23:45:29.880Z,55.23
2022-12-08T23:47:58.104Z,55.34
2022-12-08T23:50:27.229Z,55.39
2022-12-08T23:52:54.864Z,55.15
2022-12-08T23:55:22.662Z,54.55
2022-12-08T23:57:50.296Z,55.42
